Historyczne dane pomiarowe

Dodano dane terminowe – wersja testowa.

Dane z okresu 1951-2019

Wersja bazy: 1.34 [2019-03-16, lista zmian], aktualizacja planowana na 2019-04-15

Dane meteo z obszaru Polski uzyskane na podstawie danych udostępnionych przez Instytut Meteorologii i Gospodarki Wodnej – Państwowy Instytut Badawczy.

 

Wybierz Datę:    

       

TemperaturaWilgotnośćWiatrCiśnienieOpadyŚniegCzas trwania zjawisk
 Stacja t tx tn tng RH VA  wxwx mslp ppp RRR   cm mm wxwxwxwxwxwxwx
1983-04-17 6.3 15.0 -1.7 -5.1 70.0- 0.0 1.0---- 0.0------------
1983-04-18 7.8 13.9 -0.5 -4.6 52.0- 4.0 3.0---- 0.0------------
1983-04-19 9.0 17.6 1.7 -0.7 59.3- 5.0 2.7---- 0.0------------
1983-04-20 12.3 20.0 8.4 4.9 68.5- 4.0 2.3---- 0.0------------
1983-04-21 12.9 23.8 0.1 -4.1 67.0- 0.0 2.3---- 0.0------------
1983-04-22 18.1 25.6 10.6 5.4 63.0- 7.0 2.7---- 2.2------------
1983-04-23 15.8 21.8 12.4 9.9 86.0- 7.0 0.7---- 0.0------------
1983-04-24 14.5 20.5 9.4 5.8 78.3- 4.3 1.3---- 2.1------------
1983-04-25 13.8 23.0 8.0 4.4 83.8- 3.7 2.0---- 0.0------------
1983-04-26 12.9 20.0 6.9 3.4 81.3- 2.7 0.7---- 0.0------------
1983-04-27 16.2 24.5 8.1 4.4 75.0- 5.3 1.3---- 0.0------------
1983-04-28 15.0 20.5 11.3 6.9 69.5- 4.0 1.7---- 0.0------------
1983-04-29 14.3 21.9 5.9 2.4 68.5- 5.0 1.3---- 1.9------------
1983-04-30 12.7 17.0 11.0 7.4 83.8- 5.0 2.0---- 0.0------------
1983-05-01 11.5 19.3 2.3 -0.6 72.3- 1.7 2.0---- 0.0------------
1983-05-02 11.7 13.7 9.7 6.9 84.8- 8.0 2.3---- 12.1------------
1983-05-03 11.8 17.0 7.5 5.9 75.0- 6.0 1.3---- 2.7------------
1983-05-04 10.0 15.0 6.7 4.9 89.0- 5.3 1.3---- 9.4------------
1983-05-05 9.0 12.9 6.3 3.5 88.5- 6.3 0.7---- 0.4------------
1983-05-06 9.3 13.1 3.0 0.4 77.8- 4.3 1.0---- 0.4------------
1983-05-07 10.3 16.9 3.7 1.3 76.8- 4.7 1.0---- 0.0------------
1983-05-08 10.7 17.4 1.2 -1.1 67.3- 3.0 1.7---- 0.0------------
1983-05-09 11.5 15.5 7.5 5.7 69.0- 8.0 3.7---- 5.0------------
1983-05-10 12.5 16.0 9.9 8.4 91.0- 5.3 1.0---- 0.1------------
1983-05-11 13.4 20.5 7.5 4.6 85.3- 6.3 2.0---- 8.4------------
1983-05-12 14.1 20.0 9.4 6.4 82.5- 4.0 1.3---- 1.6------------
1983-05-13 17.2 26.6 9.8 6.9 78.3- 5.7 1.7---- 12.5------------
1983-05-14 17.7 23.2 11.1 8.9 85.0- 1.7 1.3---- 0.0------------
1983-05-15 19.5 27.1 11.2 8.4 78.8- 6.7 1.3---- 0.0------------
1983-05-16 23.6 32.6 14.5 11.5 65.5- 2.0 2.3---- 0.0------------
251.1 ms

 

Źródłem pochodzenia danych jest Instytut Meteorologii i Gospodarki Wodnej – Państwowy Instytut Badawczy. Dane Instytutu Meteorologii i Gospodarki Wodnej – Państwowego Instytutu Badawczego zostały przetworzone.

Dane źródłowe można odnaleźć na stronie https://dane.imgw.pl